sensor_id;sensor_type;location;lat;lon;timestamp;temperature;humidity
74666;DHT22;71408;50.106;8.694;2023-08-06T00:02:18;24.20;53.60
74666;DHT22;71408;50.106;8.694;2023-08-06T00:04:44;24.20;53.60
74666;DHT22;71408;50.106;8.694;2023-08-06T00:07:09;24.20;53.60
74666;DHT22;71408;50.106;8.694;2023-08-06T00:09:35;24.30;53.60
74666;DHT22;71408;50.106;8.694;2023-08-06T00:12:00;24.30;53.60
74666;DHT22;71408;50.106;8.694;2023-08-06T00:14:26;24.30;53.60
74666;DHT22;71408;50.106;8.694;2023-08-06T00:16:51;24.20;53.60
74666;DHT22;71408;50.106;8.694;2023-08-06T00:19:16;24.20;53.60
74666;DHT22;71408;50.106;8.694;2023-08-06T00:21:42;24.20;53.60
74666;DHT22;71408;50.106;8.694;2023-08-06T00:24:07;24.30;53.50
74666;DHT22;71408;50.106;8.694;2023-08-06T00:26:33;24.30;53.50
74666;DHT22;71408;50.106;8.694;2023-08-06T00:28:58;24.30;53.40
74666;DHT22;71408;50.106;8.694;2023-08-06T00:31:24;24.30;53.40
74666;DHT22;71408;50.106;8.694;2023-08-06T00:33:49;24.30;53.40
74666;DHT22;71408;50.106;8.694;2023-08-06T00:36:15;24.30;53.50
74666;DHT22;71408;50.106;8.694;2023-08-06T00:38:40;24.30;53.40
74666;DHT22;71408;50.106;8.694;2023-08-06T00:41:06;24.30;53.40
74666;DHT22;71408;50.106;8.694;2023-08-06T00:43:31;24.30;53.40
74666;DHT22;71408;50.106;8.694;2023-08-06T00:45:57;24.30;53.40
74666;DHT22;71408;50.106;8.694;2023-08-06T00:48:22;24.30;53.40
74666;DHT22;71408;50.106;8.694;2023-08-06T00:50:48;24.30;53.40
74666;DHT22;71408;50.106;8.694;2023-08-06T00:53:13;24.30;53.40
74666;DHT22;71408;50.106;8.694;2023-08-06T00:55:39;24.30;53.50
74666;DHT22;71408;50.106;8.694;2023-08-06T00:58:04;24.30;53.40
74666;DHT22;71408;50.106;8.694;2023-08-06T01:00:30;24.30;53.40
74666;DHT22;71408;50.106;8.694;2023-08-06T01:02:55;24.20;53.50
74666;DHT22;71408;50.106;8.694;2023-08-06T01:05:21;24.20;53.40
74666;DHT22;71408;50.106;8.694;2023-08-06T01:07:56;24.20;53.40
74666;DHT22;71408;50.106;8.694;2023-08-06T01:10:40;24.20;53.50
74666;DHT22;71408;50.106;8.694;2023-08-06T01:13:16;24.20;53.40
74666;DHT22;71408;50.106;8.694;2023-08-06T01:15:46;24.20;53.40
74666;DHT22;71408;50.106;8.694;2023-08-06T01:18:11;24.20;53.40
74666;DHT22;71408;50.106;8.694;2023-08-06T01:20:37;24.30;53.50
74666;DHT22;71408;50.106;8.694;2023-08-06T01:23:02;24.20;53.40
74666;DHT22;71408;50.106;8.694;2023-08-06T01:25:35;24.20;53.40
74666;DHT22;71408;50.106;8.694;2023-08-06T01:28:04;24.20;53.40
74666;DHT22;71408;50.106;8.694;2023-08-06T01:30:32;24.20;53.40
74666;DHT22;71408;50.106;8.694;2023-08-06T01:33:02;24.20;53.40
74666;DHT22;71408;50.106;8.694;2023-08-06T01:35:29;24.20;53.40
74666;DHT22;71408;50.106;8.694;2023-08-06T01:37:55;24.20;53.50
74666;DHT22;71408;50.106;8.694;2023-08-06T01:40:21;24.20;53.50
74666;DHT22;71408;50.106;8.694;2023-08-06T01:42:47;24.20;53.50
74666;DHT22;71408;50.106;8.694;2023-08-06T01:45:12;24.20;53.50
74666;DHT22;71408;50.106;8.694;2023-08-06T01:47:38;24.20;53.50
74666;DHT22;71408;50.106;8.694;2023-08-06T01:50:04;24.20;53.50
74666;DHT22;71408;50.106;8.694;2023-08-06T01:52:29;24.20;53.50
74666;DHT22;71408;50.106;8.694;2023-08-06T01:54:55;24.20;53.50
74666;DHT22;71408;50.106;8.694;2023-08-06T01:57:20;24.20;53.50
74666;DHT22;71408;50.106;8.694;2023-08-06T01:59:46;24.20;53.50
74666;DHT22;71408;50.106;8.694;2023-08-06T02:02:11;24.10;53.60
74666;DHT22;71408;50.106;8.694;2023-08-06T02:04:37;24.10;53.60
74666;DHT22;71408;50.106;8.694;2023-08-06T02:07:02;24.10;53.60
74666;DHT22;71408;50.106;8.694;2023-08-06T02:09:28;24.20;53.50
74666;DHT22;71408;50.106;8.694;2023-08-06T02:11:53;24.20;53.60
74666;DHT22;71408;50.106;8.694;2023-08-06T02:14:19;24.10;53.50
74666;DHT22;71408;50.106;8.694;2023-08-06T02:16:44;24.10;53.50
74666;DHT22;71408;50.106;8.694;2023-08-06T02:19:10;24.10;53.60
74666;DHT22;71408;50.106;8.694;2023-08-06T02:21:35;24.10;53.60
74666;DHT22;71408;50.106;8.694;2023-08-06T02:24:01;24.10;53.60
74666;DHT22;71408;50.106;8.694;2023-08-06T02:26:26;24.10;54.30
74666;DHT22;71408;50.106;8.694;2023-08-06T02:28:52;24.10;53.70
74666;DHT22;71408;50.106;8.694;2023-08-06T02:31:17;24.10;53.60
74666;DHT22;71408;50.106;8.694;2023-08-06T02:33:43;24.10;53.60
74666;DHT22;71408;50.106;8.694;2023-08-06T02:36:08;24.10;53.60
74666;DHT22;71408;50.106;8.694;2023-08-06T02:38:34;24.10;53.60
74666;DHT22;71408;50.106;8.694;2023-08-06T02:41:01;24.10;53.60
74666;DHT22;71408;50.106;8.694;2023-08-06T02:43:27;24.10;53.50
74666;DHT22;71408;50.106;8.694;2023-08-06T02:45:56;24.10;53.50
74666;DHT22;71408;50.106;8.694;2023-08-06T02:48:21;24.10;53.60
74666;DHT22;71408;50.106;8.694;2023-08-06T02:50:47;24.10;53.60
74666;DHT22;71408;50.106;8.694;2023-08-06T02:53:12;24.10;53.70
74666;DHT22;71408;50.106;8.694;2023-08-06T02:55:38;24.10;53.60
74666;DHT22;71408;50.106;8.694;2023-08-06T02:58:10;24.10;53.70
74666;DHT22;71408;50.106;8.694;2023-08-06T03:00:35;24.10;53.70
74666;DHT22;71408;50.106;8.694;2023-08-06T03:03:01;24.10;53.60
74666;DHT22;71408;50.106;8.694;2023-08-06T03:05:26;24.10;53.60
74666;DHT22;71408;50.106;8.694;2023-08-06T03:07:52;24.10;53.60
74666;DHT22;71408;50.106;8.694;2023-08-06T03:10:17;24.10;53.60
74666;DHT22;71408;50.106;8.694;2023-08-06T03:12:43;24.10;53.60
74666;DHT22;71408;50.106;8.694;2023-08-06T03:15:08;24.10;53.70
74666;DHT22;71408;50.106;8.694;2023-08-06T03:17:34;24.10;53.70
74666;DHT22;71408;50.106;8.694;2023-08-06T03:19:59;24.10;53.70
74666;DHT22;71408;50.106;8.694;2023-08-06T03:22:25;24.10;53.70
74666;DHT22;71408;50.106;8.694;2023-08-06T03:24:50;24.10;53.80
74666;DHT22;71408;50.106;8.694;2023-08-06T03:27:17;24.10;53.70
74666;DHT22;71408;50.106;8.694;2023-08-06T03:29:42;24.10;53.80
74666;DHT22;71408;50.106;8.694;2023-08-06T03:32:08;24.10;53.70
74666;DHT22;71408;50.106;8.694;2023-08-06T03:34:33;24.10;53.70
74666;DHT22;71408;50.106;8.694;2023-08-06T03:36:58;24.00;53.70
74666;DHT22;71408;50.106;8.694;2023-08-06T03:39:24;24.00;53.60
74666;DHT22;71408;50.106;8.694;2023-08-06T03:41:49;24.10;53.70
74666;DHT22;71408;50.106;8.694;2023-08-06T03:44:15;24.10;53.70
74666;DHT22;71408;50.106;8.694;2023-08-06T03:46:40;24.10;53.70
74666;DHT22;71408;50.106;8.694;2023-08-06T03:49:06;24.10;53.60
74666;DHT22;71408;50.106;8.694;2023-08-06T03:51:31;24.10;53.70
74666;DHT22;71408;50.106;8.694;2023-08-06T03:53:57;24.00;53.70
74666;DHT22;71408;50.106;8.694;2023-08-06T03:56:22;24.00;53.60
74666;DHT22;71408;50.106;8.694;2023-08-06T03:58:47;24.00;53.70
74666;DHT22;71408;50.106;8.694;2023-08-06T04:01:13;24.00;53.70
74666;DHT22;71408;50.106;8.694;2023-08-06T04:03:39;24.10;53.70
74666;DHT22;71408;50.106;8.694;2023-08-06T04:06:06;24.10;53.70
74666;DHT22;71408;50.106;8.694;2023-08-06T04:08:31;24.00;53.70
74666;DHT22;71408;50.106;8.694;2023-08-06T04:10:57;24.00;53.70
74666;DHT22;71408;50.106;8.694;2023-08-06T04:13:22;24.00;53.70
74666;DHT22;71408;50.106;8.694;2023-08-06T04:15:48;24.00;53.70
74666;DHT22;71408;50.106;8.694;2023-08-06T04:18:13;24.00;53.80
74666;DHT22;71408;50.106;8.694;2023-08-06T04:20:43;24.00;53.70
74666;DHT22;71408;50.106;8.694;2023-08-06T04:23:09;24.00;53.70
74666;DHT22;71408;50.106;8.694;2023-08-06T04:25:34;24.00;53.70
74666;DHT22;71408;50.106;8.694;2023-08-06T04:28:00;24.00;53.70
74666;DHT22;71408;50.106;8.694;2023-08-06T04:30:25;24.00;53.80
74666;DHT22;71408;50.106;8.694;2023-08-06T04:32:51;24.00;53.90
74666;DHT22;71408;50.106;8.694;2023-08-06T04:35:16;24.00;53.80
74666;DHT22;71408;50.106;8.694;2023-08-06T04:37:42;24.00;54.00
74666;DHT22;71408;50.106;8.694;2023-08-06T04:40:08;24.00;53.80
74666;DHT22;71408;50.106;8.694;2023-08-06T04:42:33;24.00;53.70
74666;DHT22;71408;50.106;8.694;2023-08-06T04:45:00;24.00;53.80
74666;DHT22;71408;50.106;8.694;2023-08-06T04:47:26;24.00;53.70
74666;DHT22;71408;50.106;8.694;2023-08-06T04:49:51;24.00;53.70
74666;DHT22;71408;50.106;8.694;2023-08-06T04:52:17;24.00;53.70
74666;DHT22;71408;50.106;8.694;2023-08-06T04:54:43;24.00;53.70
74666;DHT22;71408;50.106;8.694;2023-08-06T04:57:08;24.00;53.80
74666;DHT22;71408;50.106;8.694;2023-08-06T04:59:34;23.90;53.80
74666;DHT22;71408;50.106;8.694;2023-08-06T05:01:59;24.00;53.80
74666;DHT22;71408;50.106;8.694;2023-08-06T05:04:25;24.00;53.80
74666;DHT22;71408;50.106;8.694;2023-08-06T05:06:50;24.00;53.70
74666;DHT22;71408;50.106;8.694;2023-08-06T05:09:16;24.00;53.70
74666;DHT22;71408;50.106;8.694;2023-08-06T05:11:41;24.00;53.80
74666;DHT22;71408;50.106;8.694;2023-08-06T05:14:07;24.00;54.40
74666;DHT22;71408;50.106;8.694;2023-08-06T05:16:32;23.90;53.70
74666;DHT22;71408;50.106;8.694;2023-08-06T05:18:58;23.90;53.80
74666;DHT22;71408;50.106;8.694;2023-08-06T05:21:23;23.90;53.80
74666;DHT22;71408;50.106;8.694;2023-08-06T05:23:49;23.90;53.80
74666;DHT22;71408;50.106;8.694;2023-08-06T05:26:14;23.90;53.80
74666;DHT22;71408;50.106;8.694;2023-08-06T05:28:43;23.90;53.70
74666;DHT22;71408;50.106;8.694;2023-08-06T05:31:09;23.90;53.70
74666;DHT22;71408;50.106;8.694;2023-08-06T05:33:35;23.90;53.70
74666;DHT22;71408;50.106;8.694;2023-08-06T05:36:00;23.90;53.80
74666;DHT22;71408;50.106;8.694;2023-08-06T05:38:26;23.90;53.80
74666;DHT22;71408;50.106;8.694;2023-08-06T05:40:51;23.90;53.80
74666;DHT22;71408;50.106;8.694;2023-08-06T05:43:17;23.90;53.80
74666;DHT22;71408;50.106;8.694;2023-08-06T05:45:45;23.90;53.80
74666;DHT22;71408;50.106;8.694;2023-08-06T05:48:11;23.90;53.80
74666;DHT22;71408;50.106;8.694;2023-08-06T05:50:37;23.90;53.80
74666;DHT22;71408;50.106;8.694;2023-08-06T05:53:02;23.90;53.80
74666;DHT22;71408;50.106;8.694;2023-08-06T05:55:28;23.90;53.90
74666;DHT22;71408;50.106;8.694;2023-08-06T05:57:53;23.90;54.50
74666;DHT22;71408;50.106;8.694;2023-08-06T06:00:20;23.90;53.80
74666;DHT22;71408;50.106;8.694;2023-08-06T06:02:45;23.90;53.90
74666;DHT22;71408;50.106;8.694;2023-08-06T06:05:11;23.90;53.80
74666;DHT22;71408;50.106;8.694;2023-08-06T06:07:36;23.90;53.80
74666;DHT22;71408;50.106;8.694;2023-08-06T06:10:02;23.90;53.90
74666;DHT22;71408;50.106;8.694;2023-08-06T06:12:27;23.90;53.90
74666;DHT22;71408;50.106;8.694;2023-08-06T06:14:52;23.90;53.90
74666;DHT22;71408;50.106;8.694;2023-08-06T06:17:18;23.90;53.90
74666;DHT22;71408;50.106;8.694;2023-08-06T06:19:43;23.90;53.90
74666;DHT22;71408;50.106;8.694;2023-08-06T06:22:09;23.90;53.90
74666;DHT22;71408;50.106;8.694;2023-08-06T06:24:34;23.90;53.90
74666;DHT22;71408;50.106;8.694;2023-08-06T06:27:00;23.90;54.00
74666;DHT22;71408;50.106;8.694;2023-08-06T06:29:25;23.90;53.90
74666;DHT22;71408;50.106;8.694;2023-08-06T06:31:51;23.90;54.00
74666;DHT22;71408;50.106;8.694;2023-08-06T06:34:16;23.90;53.90
74666;DHT22;71408;50.106;8.694;2023-08-06T06:36:42;23.90;53.90
74666;DHT22;71408;50.106;8.694;2023-08-06T06:39:07;23.90;53.90
74666;DHT22;71408;50.106;8.694;2023-08-06T06:41:33;23.90;53.90
74666;DHT22;71408;50.106;8.694;2023-08-06T06:43:59;23.90;53.80
74666;DHT22;71408;50.106;8.694;2023-08-06T06:46:24;23.90;53.90
74666;DHT22;71408;50.106;8.694;2023-08-06T06:48:50;23.90;53.90
74666;DHT22;71408;50.106;8.694;2023-08-06T06:51:15;23.90;53.80
74666;DHT22;71408;50.106;8.694;2023-08-06T06:53:41;23.90;53.90
74666;DHT22;71408;50.106;8.694;2023-08-06T06:56:06;23.90;53.90
74666;DHT22;71408;50.106;8.694;2023-08-06T06:58:32;23.90;53.90
74666;DHT22;71408;50.106;8.694;2023-08-06T07:00:58;23.90;53.90
74666;DHT22;71408;50.106;8.694;2023-08-06T07:03:23;23.90;53.90
74666;DHT22;71408;50.106;8.694;2023-08-06T07:05:49;23.90;53.90
74666;DHT22;71408;50.106;8.694;2023-08-06T07:08:14;23.90;53.90
74666;DHT22;71408;50.106;8.694;2023-08-06T07:10:40;23.90;53.90
74666;DHT22;71408;50.106;8.694;2023-08-06T07:13:06;23.90;53.90
74666;DHT22;71408;50.106;8.694;2023-08-06T07:15:31;23.90;53.90
74666;DHT22;71408;50.106;8.694;2023-08-06T07:17:57;23.90;53.90
74666;DHT22;71408;50.106;8.694;2023-08-06T07:20:22;23.90;53.90
74666;DHT22;71408;50.106;8.694;2023-08-06T07:22:48;23.90;54.00
74666;DHT22;71408;50.106;8.694;2023-08-06T07:25:13;23.90;53.90
74666;DHT22;71408;50.106;8.694;2023-08-06T07:27:39;23.90;53.90
74666;DHT22;71408;50.106;8.694;2023-08-06T07:30:05;23.90;54.60
74666;DHT22;71408;50.106;8.694;2023-08-06T07:32:30;23.90;54.00
74666;DHT22;71408;50.106;8.694;2023-08-06T07:34:56;23.90;54.00
74666;DHT22;71408;50.106;8.694;2023-08-06T07:37:24;23.90;54.00
74666;DHT22;71408;50.106;8.694;2023-08-06T07:39:50;23.90;54.00
74666;DHT22;71408;50.106;8.694;2023-08-06T07:42:15;23.90;54.00
74666;DHT22;71408;50.106;8.694;2023-08-06T07:44:41;23.90;54.10
74666;DHT22;71408;50.106;8.694;2023-08-06T07:47:06;23.90;54.10
74666;DHT22;71408;50.106;8.694;2023-08-06T07:49:32;23.90;54.00
74666;DHT22;71408;50.106;8.694;2023-08-06T07:51:58;23.90;54.10
74666;DHT22;71408;50.106;8.694;2023-08-06T07:54:23;23.90;54.10
74666;DHT22;71408;50.106;8.694;2023-08-06T07:56:49;23.90;54.00
74666;DHT22;71408;50.106;8.694;2023-08-06T07:59:15;23.80;54.00
74666;DHT22;71408;50.106;8.694;2023-08-06T08:01:40;23.90;54.00
74666;DHT22;71408;50.106;8.694;2023-08-06T08:04:06;23.90;54.00
74666;DHT22;71408;50.106;8.694;2023-08-06T08:06:32;23.90;54.00
74666;DHT22;71408;50.106;8.694;2023-08-06T08:08:58;23.90;54.00
74666;DHT22;71408;50.106;8.694;2023-08-06T08:11:24;23.80;54.00
74666;DHT22;71408;50.106;8.694;2023-08-06T08:13:49;23.90;54.00
74666;DHT22;71408;50.106;8.694;2023-08-06T08:16:14;23.80;54.00
74666;DHT22;71408;50.106;8.694;2023-08-06T08:18:40;23.90;54.00
74666;DHT22;71408;50.106;8.694;2023-08-06T08:21:05;23.80;54.00
74666;DHT22;71408;50.106;8.694;2023-08-06T08:23:31;23.90;54.00
74666;DHT22;71408;50.106;8.694;2023-08-06T08:25:57;23.90;54.00
74666;DHT22;71408;50.106;8.694;2023-08-06T08:28:22;23.90;54.00
74666;DHT22;71408;50.106;8.694;2023-08-06T08:30:48;23.90;53.90
74666;DHT22;71408;50.106;8.694;2023-08-06T08:33:13;23.90;53.90
74666;DHT22;71408;50.106;8.694;2023-08-06T08:35:39;23.90;53.90
74666;DHT22;71408;50.106;8.694;2023-08-06T08:38:05;23.90;53.90
74666;DHT22;71408;50.106;8.694;2023-08-06T08:40:34;23.90;53.90
74666;DHT22;71408;50.106;8.694;2023-08-06T08:43:03;23.90;53.80
74666;DHT22;71408;50.106;8.694;2023-08-06T08:45:29;23.90;53.80
74666;DHT22;71408;50.106;8.694;2023-08-06T08:47:55;23.90;53.80
74666;DHT22;71408;50.106;8.694;2023-08-06T08:50:20;23.90;53.80
74666;DHT22;71408;50.106;8.694;2023-08-06T08:52:46;23.90;53.80
74666;DHT22;71408;50.106;8.694;2023-08-06T08:55:14;23.90;53.80
74666;DHT22;71408;50.106;8.694;2023-08-06T08:57:40;23.90;53.80
74666;DHT22;71408;50.106;8.694;2023-08-06T09:00:06;23.90;53.80
74666;DHT22;71408;50.106;8.694;2023-08-06T09:02:32;23.90;53.80
74666;DHT22;71408;50.106;8.694;2023-08-06T09:04:57;24.00;53.70
74666;DHT22;71408;50.106;8.694;2023-08-06T09:07:26;24.00;53.80
74666;DHT22;71408;50.106;8.694;2023-08-06T09:09:52;24.00;53.70
74666;DHT22;71408;50.106;8.694;2023-08-06T09:12:18;24.00;53.80
74666;DHT22;71408;50.106;8.694;2023-08-06T09:14:44;24.00;53.70
74666;DHT22;71408;50.106;8.694;2023-08-06T09:17:09;24.00;54.40
74666;DHT22;71408;50.106;8.694;2023-08-06T09:19:37;24.00;53.90
74666;DHT22;71408;50.106;8.694;2023-08-06T09:22:09;23.90;53.80
74666;DHT22;71408;50.106;8.694;2023-08-06T09:24:38;23.90;53.90
74666;DHT22;71408;50.106;8.694;2023-08-06T09:27:04;24.00;53.90
74666;DHT22;71408;50.106;8.694;2023-08-06T09:29:30;23.90;53.90
74666;DHT22;71408;50.106;8.694;2023-08-06T09:31:57;24.00;53.90
74666;DHT22;71408;50.106;8.694;2023-08-06T09:34:23;23.90;53.90
74666;DHT22;71408;50.106;8.694;2023-08-06T09:36:49;23.90;53.90
74666;DHT22;71408;50.106;8.694;2023-08-06T09:39:21;23.90;53.90
74666;DHT22;71408;50.106;8.694;2023-08-06T09:41:47;23.90;53.90
74666;DHT22;71408;50.106;8.694;2023-08-06T09:44:16;23.90;54.00
74666;DHT22;71408;50.106;8.694;2023-08-06T09:46:48;23.90;54.00
74666;DHT22;71408;50.106;8.694;2023-08-06T09:49:13;23.90;54.00
74666;DHT22;71408;50.106;8.694;2023-08-06T09:51:39;23.90;54.00
74666;DHT22;71408;50.106;8.694;2023-08-06T09:54:05;23.90;54.00
74666;DHT22;71408;50.106;8.694;2023-08-06T09:56:32;23.90;54.00
74666;DHT22;71408;50.106;8.694;2023-08-06T09:59:04;23.90;54.10
74666;DHT22;71408;50.106;8.694;2023-08-06T10:01:30;23.90;54.00
74666;DHT22;71408;50.106;8.694;2023-08-06T10:03:55;23.90;54.00
74666;DHT22;71408;50.106;8.694;2023-08-06T10:06:22;23.90;54.00
74666;DHT22;71408;50.106;8.694;2023-08-06T10:08:49;23.90;54.00
74666;DHT22;71408;50.106;8.694;2023-08-06T10:11:15;23.90;54.10
74666;DHT22;71408;50.106;8.694;2023-08-06T10:13:41;23.90;54.10
74666;DHT22;71408;50.106;8.694;2023-08-06T10:16:07;23.90;54.00
74666;DHT22;71408;50.106;8.694;2023-08-06T10:18:32;23.90;54.00
74666;DHT22;71408;50.106;8.694;2023-08-06T10:20:59;23.90;53.90
74666;DHT22;71408;50.106;8.694;2023-08-06T10:23:35;23.90;54.00
74666;DHT22;71408;50.106;8.694;2023-08-06T10:26:01;23.90;54.00
74666;DHT22;71408;50.106;8.694;2023-08-06T10:28:38;23.90;53.90
74666;DHT22;71408;50.106;8.694;2023-08-06T10:31:05;23.90;53.90
74666;DHT22;71408;50.106;8.694;2023-08-06T10:33:39;24.00;53.90
74666;DHT22;71408;50.106;8.694;2023-08-06T10:36:06;24.00;53.90
74666;DHT22;71408;50.106;8.694;2023-08-06T10:38:34;24.00;53.90
74666;DHT22;71408;50.106;8.694;2023-08-06T10:41:02;24.00;53.80
74666;DHT22;71408;50.106;8.694;2023-08-06T10:43:34;24.00;53.70
74666;DHT22;71408;50.106;8.694;2023-08-06T10:46:03;24.10;54.40
74666;DHT22;71408;50.106;8.694;2023-08-06T10:48:35;24.10;53.70
74666;DHT22;71408;50.106;8.694;2023-08-06T10:51:06;24.10;53.70
74666;DHT22;71408;50.106;8.694;2023-08-06T10:53:32;24.10;53.70
74666;DHT22;71408;50.106;8.694;2023-08-06T10:55:57;24.10;53.70
74666;DHT22;71408;50.106;8.694;2023-08-06T10:58:23;24.10;53.70
74666;DHT22;71408;50.106;8.694;2023-08-06T11:00:48;24.10;53.70
74666;DHT22;71408;50.106;8.694;2023-08-06T11:03:14;24.10;53.60
74666;DHT22;71408;50.106;8.694;2023-08-06T11:05:40;24.10;53.70
74666;DHT22;71408;50.106;8.694;2023-08-06T11:08:05;24.10;53.70
74666;DHT22;71408;50.106;8.694;2023-08-06T11:10:32;24.10;53.70
74666;DHT22;71408;50.106;8.694;2023-08-06T11:13:01;24.10;53.70
74666;DHT22;71408;50.106;8.694;2023-08-06T11:15:28;24.10;53.70
74666;DHT22;71408;50.106;8.694;2023-08-06T11:17:53;24.10;53.70
74666;DHT22;71408;50.106;8.694;2023-08-06T11:20:19;24.10;53.70
74666;DHT22;71408;50.106;8.694;2023-08-06T11:22:45;24.10;53.70
74666;DHT22;71408;50.106;8.694;2023-08-06T11:25:11;24.10;53.80
74666;DHT22;71408;50.106;8.694;2023-08-06T11:27:36;24.10;53.70
74666;DHT22;71408;50.106;8.694;2023-08-06T11:30:02;24.10;53.70
74666;DHT22;71408;50.106;8.694;2023-08-06T11:32:28;24.10;54.40
74666;DHT22;71408;50.106;8.694;2023-08-06T11:34:53;24.10;53.80
74666;DHT22;71408;50.106;8.694;2023-08-06T11:37:20;24.10;53.80
74666;DHT22;71408;50.106;8.694;2023-08-06T11:39:47;24.10;53.80
74666;DHT22;71408;50.106;8.694;2023-08-06T11:42:14;24.10;53.90
74666;DHT22;71408;50.106;8.694;2023-08-06T11:44:40;24.10;53.80
74666;DHT22;71408;50.106;8.694;2023-08-06T11:47:11;24.10;53.80
74666;DHT22;71408;50.106;8.694;2023-08-06T11:49:38;24.10;53.80
74666;DHT22;71408;50.106;8.694;2023-08-06T11:52:13;24.10;53.80
74666;DHT22;71408;50.106;8.694;2023-08-06T11:54:39;24.10;53.80
74666;DHT22;71408;50.106;8.694;2023-08-06T11:57:05;24.10;53.80
74666;DHT22;71408;50.106;8.694;2023-08-06T11:59:30;24.10;53.80
74666;DHT22;71408;50.106;8.694;2023-08-06T12:01:56;24.10;53.90
74666;DHT22;71408;50.106;8.694;2023-08-06T12:04:21;24.10;53.90
74666;DHT22;71408;50.106;8.694;2023-08-06T12:06:47;24.10;54.00
74666;DHT22;71408;50.106;8.694;2023-08-06T12:09:12;24.10;54.00
74666;DHT22;71408;50.106;8.694;2023-08-06T12:11:38;24.00;54.10
74666;DHT22;71408;50.106;8.694;2023-08-06T12:14:03;24.00;54.10
74666;DHT22;71408;50.106;8.694;2023-08-06T12:16:29;24.00;54.10
74666;DHT22;71408;50.106;8.694;2023-08-06T12:18:54;24.00;54.20
74666;DHT22;71408;50.106;8.694;2023-08-06T12:21:20;24.00;54.20
74666;DHT22;71408;50.106;8.694;2023-08-06T12:23:45;24.00;54.20
74666;DHT22;71408;50.106;8.694;2023-08-06T12:26:11;24.00;54.20
74666;DHT22;71408;50.106;8.694;2023-08-06T12:28:36;24.00;54.20
74666;DHT22;71408;50.106;8.694;2023-08-06T12:31:02;24.00;54.30
74666;DHT22;71408;50.106;8.694;2023-08-06T12:33:27;24.00;54.30
74666;DHT22;71408;50.106;8.694;2023-08-06T12:35:53;24.00;54.30
74666;DHT22;71408;50.106;8.694;2023-08-06T12:38:20;23.90;54.20
74666;DHT22;71408;50.106;8.694;2023-08-06T12:40:45;23.90;54.20
74666;DHT22;71408;50.106;8.694;2023-08-06T12:43:11;24.00;54.30
74666;DHT22;71408;50.106;8.694;2023-08-06T12:45:36;24.00;54.30
74666;DHT22;71408;50.106;8.694;2023-08-06T12:48:02;23.90;54.20
74666;DHT22;71408;50.106;8.694;2023-08-06T12:50:28;23.90;54.20
74666;DHT22;71408;50.106;8.694;2023-08-06T12:52:53;24.00;54.30
74666;DHT22;71408;50.106;8.694;2023-08-06T12:55:19;23.90;54.20
74666;DHT22;71408;50.106;8.694;2023-08-06T12:57:44;23.90;54.10
74666;DHT22;71408;50.106;8.694;2023-08-06T13:00:10;23.90;54.20
74666;DHT22;71408;50.106;8.694;2023-08-06T13:02:36;23.90;54.20
74666;DHT22;71408;50.106;8.694;2023-08-06T13:05:01;23.90;54.20
74666;DHT22;71408;50.106;8.694;2023-08-06T13:07:30;23.90;54.20
74666;DHT22;71408;50.106;8.694;2023-08-06T13:09:56;23.90;54.20
74666;DHT22;71408;50.106;8.694;2023-08-06T13:12:21;23.90;54.20
74666;DHT22;71408;50.106;8.694;2023-08-06T13:14:48;23.90;54.20
74666;DHT22;71408;50.106;8.694;2023-08-06T13:17:13;23.90;54.10
74666;DHT22;71408;50.106;8.694;2023-08-06T13:19:39;23.90;54.20
74666;DHT22;71408;50.106;8.694;2023-08-06T13:22:05;23.90;54.20
74666;DHT22;71408;50.106;8.694;2023-08-06T13:24:32;23.90;54.20
74666;DHT22;71408;50.106;8.694;2023-08-06T13:26:57;23.90;54.20
74666;DHT22;71408;50.106;8.694;2023-08-06T13:29:24;23.90;54.20
74666;DHT22;71408;50.106;8.694;2023-08-06T13:31:49;23.90;54.20
74666;DHT22;71408;50.106;8.694;2023-08-06T13:34:15;23.90;54.20
74666;DHT22;71408;50.106;8.694;2023-08-06T13:36:42;23.90;54.20
74666;DHT22;71408;50.106;8.694;2023-08-06T13:39:07;23.90;54.20
74666;DHT22;71408;50.106;8.694;2023-08-06T13:41:33;23.80;54.20
74666;DHT22;71408;50.106;8.694;2023-08-06T13:43:58;23.80;54.20
74666;DHT22;71408;50.106;8.694;2023-08-06T13:46:24;23.80;54.20
74666;DHT22;71408;50.106;8.694;2023-08-06T13:48:49;23.80;54.20
74666;DHT22;71408;50.106;8.694;2023-08-06T13:51:18;23.80;54.20
74666;DHT22;71408;50.106;8.694;2023-08-06T13:53:44;23.80;54.20
74666;DHT22;71408;50.106;8.694;2023-08-06T13:56:09;23.80;54.10
74666;DHT22;71408;50.106;8.694;2023-08-06T13:58:36;23.80;54.80
74666;DHT22;71408;50.106;8.694;2023-08-06T14:01:02;23.80;54.10
74666;DHT22;71408;50.106;8.694;2023-08-06T14:03:27;23.80;54.10
74666;DHT22;71408;50.106;8.694;2023-08-06T14:05:52;23.80;54.20
74666;DHT22;71408;50.106;8.694;2023-08-06T14:08:20;23.80;54.10
74666;DHT22;71408;50.106;8.694;2023-08-06T14:10:46;23.80;54.10
74666;DHT22;71408;50.106;8.694;2023-08-06T14:13:11;23.80;54.10
74666;DHT22;71408;50.106;8.694;2023-08-06T14:15:37;23.80;54.10
74666;DHT22;71408;50.106;8.694;2023-08-06T14:18:05;23.80;54.10
74666;DHT22;71408;50.106;8.694;2023-08-06T14:20:31;23.80;54.10
74666;DHT22;71408;50.106;8.694;2023-08-06T14:22:57;23.80;54.10
74666;DHT22;71408;50.106;8.694;2023-08-06T14:25:22;23.70;54.00
74666;DHT22;71408;50.106;8.694;2023-08-06T14:27:48;23.80;54.10
74666;DHT22;71408;50.106;8.694;2023-08-06T14:30:13;23.80;54.00
74666;DHT22;71408;50.106;8.694;2023-08-06T14:32:39;23.70;54.00
74666;DHT22;71408;50.106;8.694;2023-08-06T14:35:04;23.70;54.00
74666;DHT22;71408;50.106;8.694;2023-08-06T14:37:30;23.70;54.00
74666;DHT22;71408;50.106;8.694;2023-08-06T14:39:55;23.70;53.90
74666;DHT22;71408;50.106;8.694;2023-08-06T14:42:21;23.70;54.00
74666;DHT22;71408;50.106;8.694;2023-08-06T14:44:46;23.80;54.00
74666;DHT22;71408;50.106;8.694;2023-08-06T14:47:12;23.70;54.00
74666;DHT22;71408;50.106;8.694;2023-08-06T14:49:38;23.70;53.90
74666;DHT22;71408;50.106;8.694;2023-08-06T14:52:04;23.70;54.00
74666;DHT22;71408;50.106;8.694;2023-08-06T14:54:29;23.70;54.00
74666;DHT22;71408;50.106;8.694;2023-08-06T14:56:55;23.70;53.90
74666;DHT22;71408;50.106;8.694;2023-08-06T14:59:20;23.70;54.00
74666;DHT22;71408;50.106;8.694;2023-08-06T15:01:46;23.70;53.90
74666;DHT22;71408;50.106;8.694;2023-08-06T15:04:11;23.70;53.90
74666;DHT22;71408;50.106;8.694;2023-08-06T15:06:37;23.70;53.90
74666;DHT22;71408;50.106;8.694;2023-08-06T15:09:02;23.70;53.90
74666;DHT22;71408;50.106;8.694;2023-08-06T15:11:28;23.70;53.90
74666;DHT22;71408;50.106;8.694;2023-08-06T15:13:53;23.70;53.90
74666;DHT22;71408;50.106;8.694;2023-08-06T15:16:19;23.70;53.90
74666;DHT22;71408;50.106;8.694;2023-08-06T15:18:44;23.70;53.90
74666;DHT22;71408;50.106;8.694;2023-08-06T15:21:10;23.70;53.90
74666;DHT22;71408;50.106;8.694;2023-08-06T15:23:35;23.70;53.90